FDX9231 PADU-PADQ
Flight info
| Callsign | FDX9231 |
|---|---|
| Flight time | 1h 59m |
| Altitude | 21000 |
| Route | MORDI CDB HBT |
| Aircraft | SF34/M-SDFGR/S |
Departure
| Time | 2026-04-21 21:41 |
|---|---|
| Airport | Tom Madsen (Dutch Harbor) Airport (PADU) |
Arrival
| Time | 2026-04-21 23:40 |
|---|---|
| Airport | Kodiak Airport (PADQ) |
| Time | Latitude | Longitude | Altitude | Speed | Heading |
|---|---|---|---|---|---|
| 2026-04-21 21:29 | 53.89530 | -166.54305 | 26 ft | 0 kts | 180° |
| 2026-04-21 21:33 | 53.89528 | -166.54305 | 26 ft | 0 kts | 179° |
| 2026-04-21 21:35 | 53.89527 | -166.54305 | 26 ft | 0 kts | 179° |
| 2026-04-21 21:35 | 53.89526 | -166.54304 | 26 ft | 1 kts | 174° |
| 2026-04-21 21:35 | 53.89522 | -166.54298 | 26 ft | 1 kts | 111° |
| 2026-04-21 21:36 | 53.89528 | -166.54271 | 26 ft | 5 kts | 68° |
| 2026-04-21 21:36 | 53.89535 | -166.54190 | 26 ft | 8 kts | 91° |
| 2026-04-21 21:36 | 53.89548 | -166.54112 | 26 ft | 8 kts | 47° |
| 2026-04-21 21:36 | 53.89596 | -166.54055 | 26 ft | 8 kts | 16° |
| 2026-04-21 21:37 | 53.89651 | -166.54089 | 26 ft | 9 kts | 317° |
| 2026-04-21 21:37 | 53.89702 | -166.54169 | 26 ft | 11 kts | 319° |
| 2026-04-21 21:37 | 53.89762 | -166.54263 | 26 ft | 13 kts | 315° |
| 2026-04-21 21:37 | 53.89831 | -166.54367 | 26 ft | 14 kts | 314° |
| 2026-04-21 21:38 | 53.89915 | -166.54491 | 26 ft | 17 kts | 317° |
| 2026-04-21 21:38 | 53.90010 | -166.54632 | 26 ft | 20 kts | 320° |
| 2026-04-21 21:38 | 53.90113 | -166.54787 | 26 ft | 15 kts | 322° |
| 2026-04-21 21:38 | 53.90174 | -166.54876 | 26 ft | 11 kts | 326° |
| 2026-04-21 21:39 | 53.90237 | -166.54956 | 26 ft | 7 kts | 317° |
| 2026-04-21 21:39 | 53.90248 | -166.54988 | 26 ft | 0 kts | 149° |
| 2026-04-21 21:40 | 53.90163 | -166.54871 | 27 ft | 49 kts | 139° |
| 2026-04-21 21:40 | 53.89754 | -166.54253 | 27 ft | 103 kts | 138° |
| 2026-04-21 21:41 | 53.89156 | -166.53354 | 232 ft | 116 kts | 141° |
| 2026-04-21 21:41 | 53.88492 | -166.52623 | 648 ft | 113 kts | 154° |
| 2026-04-21 21:41 | 53.87921 | -166.51724 | 1079 ft | 124 kts | 115° |
| 2026-04-21 21:41 | 53.88113 | -166.50250 | 1550 ft | 142 kts | 54° |
| 2026-04-21 21:42 | 53.88990 | -166.49419 | 2167 ft | 141 kts | 28° |
| 2026-04-21 21:42 | 53.89897 | -166.48860 | 2716 ft | 147 kts | 32° |
| 2026-04-21 21:42 | 53.90888 | -166.48248 | 3195 ft | 155 kts | 35° |
| 2026-04-21 21:42 | 53.91928 | -166.47601 | 3695 ft | 162 kts | 36° |
| 2026-04-21 21:43 | 53.93002 | -166.46927 | 4208 ft | 167 kts | 35° |
| 2026-04-21 21:43 | 53.94097 | -166.46225 | 4717 ft | 169 kts | 37° |
| 2026-04-21 21:43 | 53.95164 | -166.45403 | 5219 ft | 168 kts | 43° |
| 2026-04-21 21:43 | 53.96169 | -166.44435 | 5718 ft | 164 kts | 49° |
| 2026-04-21 21:44 | 53.97110 | -166.43380 | 6205 ft | 160 kts | 53° |
| 2026-04-21 21:44 | 53.98017 | -166.42243 | 6610 ft | 164 kts | 56° |
| 2026-04-21 21:44 | 53.98924 | -166.41015 | 7006 ft | 169 kts | 57° |
| 2026-04-21 21:44 | 53.99844 | -166.39717 | 7396 ft | 174 kts | 57° |
| 2026-04-21 21:45 | 54.00771 | -166.38381 | 7782 ft | 179 kts | 57° |
| 2026-04-21 21:45 | 54.01729 | -166.36984 | 8167 ft | 184 kts | 57° |
| 2026-04-21 21:45 | 54.02707 | -166.35550 | 8552 ft | 187 kts | 57° |
| 2026-04-21 21:45 | 54.03701 | -166.34088 | 8931 ft | 191 kts | 56° |
| 2026-04-21 21:46 | 54.04709 | -166.32600 | 9310 ft | 193 kts | 56° |
| 2026-04-21 21:46 | 54.05730 | -166.31091 | 9688 ft | 196 kts | 56° |
| 2026-04-21 21:46 | 54.06764 | -166.29559 | 10061 ft | 197 kts | 55° |
| 2026-04-21 21:46 | 54.07805 | -166.28017 | 10438 ft | 199 kts | 55° |
| 2026-04-21 21:47 | 54.08854 | -166.26462 | 10814 ft | 200 kts | 55° |
| 2026-04-21 21:47 | 54.09904 | -166.24903 | 11188 ft | 201 kts | 54° |
| 2026-04-21 21:47 | 54.10963 | -166.23331 | 11563 ft | 201 kts | 54° |
| 2026-04-21 21:47 | 54.12008 | -166.21777 | 11932 ft | 202 kts | 54° |
| 2026-04-21 21:48 | 54.13067 | -166.20200 | 12306 ft | 202 kts | 54° |
| 2026-04-21 21:48 | 54.14124 | -166.18627 | 12676 ft | 202 kts | 54° |
| 2026-04-21 21:48 | 54.15181 | -166.17051 | 13048 ft | 201 kts | 53° |
| 2026-04-21 21:48 | 54.16234 | -166.15479 | 13420 ft | 201 kts | 53° |
| 2026-04-21 21:49 | 54.17284 | -166.13910 | 13789 ft | 200 kts | 53° |
| 2026-04-21 21:49 | 54.18330 | -166.12346 | 14160 ft | 199 kts | 53° |
| 2026-04-21 21:49 | 54.19370 | -166.10792 | 14531 ft | 198 kts | 52° |
| 2026-04-21 21:49 | 54.20414 | -166.09224 | 14909 ft | 201 kts | 52° |
| 2026-04-21 21:50 | 54.21472 | -166.07630 | 15290 ft | 205 kts | 52° |
| 2026-04-21 21:50 | 54.22548 | -166.06010 | 15668 ft | 207 kts | 51° |
| 2026-04-21 21:50 | 54.23635 | -166.04375 | 16046 ft | 209 kts | 51° |
| 2026-04-21 21:50 | 54.24734 | -166.02722 | 16424 ft | 211 kts | 50° |
| 2026-04-21 21:51 | 54.25841 | -166.01059 | 16800 ft | 212 kts | 50° |
| 2026-04-21 21:51 | 54.26955 | -165.99383 | 17176 ft | 213 kts | 49° |
| 2026-04-21 21:51 | 54.28073 | -165.97702 | 17551 ft | 214 kts | 49° |
| 2026-04-21 21:51 | 54.29190 | -165.96020 | 17926 ft | 214 kts | 49° |
| 2026-04-21 21:52 | 54.30295 | -165.94354 | 18295 ft | 214 kts | 48° |
| 2026-04-21 21:52 | 54.31411 | -165.92673 | 18669 ft | 214 kts | 48° |
| 2026-04-21 21:52 | 54.32527 | -165.90988 | 19043 ft | 213 kts | 48° |
| 2026-04-21 21:52 | 54.33638 | -165.89310 | 19415 ft | 213 kts | 48° |
| 2026-04-21 21:53 | 54.34746 | -165.87634 | 19771 ft | 213 kts | 48° |
| 2026-04-21 21:53 | 54.35868 | -165.85933 | 20049 ft | 218 kts | 48° |
| 2026-04-21 21:53 | 54.37014 | -165.84190 | 20309 ft | 222 kts | 47° |
| 2026-04-21 21:53 | 54.38194 | -165.82394 | 20493 ft | 231 kts | 47° |
| 2026-04-21 21:54 | 54.39425 | -165.80515 | 20571 ft | 243 kts | 47° |
| 2026-04-21 21:54 | 54.40721 | -165.78534 | 20587 ft | 256 kts | 47° |
| 2026-04-21 21:54 | 54.42087 | -165.76448 | 20588 ft | 268 kts | 46° |
| 2026-04-21 21:54 | 54.43486 | -165.74313 | 20588 ft | 278 kts | 46° |
| 2026-04-21 21:55 | 54.44958 | -165.72070 | 20588 ft | 287 kts | 46° |
| 2026-04-21 21:55 | 54.46481 | -165.69790 | 20588 ft | 295 kts | 41° |
| 2026-04-21 21:55 | 54.48364 | -165.68287 | 20587 ft | 305 kts | 11° |
| 2026-04-21 21:55 | 54.50488 | -165.67941 | 20599 ft | 309 kts | 5° |
| 2026-04-21 21:56 | 54.52520 | -165.66771 | 20595 ft | 310 kts | 33° |
| 2026-04-21 21:56 | 54.54080 | -165.64280 | 20597 ft | 303 kts | 60° |
| 2026-04-21 21:56 | 54.55066 | -165.61160 | 20603 ft | 299 kts | 72° |
| 2026-04-21 21:56 | 54.55844 | -165.57829 | 20603 ft | 299 kts | 76° |
| 2026-04-21 21:57 | 54.56441 | -165.54424 | 20604 ft | 295 kts | 84° |
| 2026-04-21 21:57 | 54.56851 | -165.50963 | 20607 ft | 295 kts | 86° |
| 2026-04-21 21:57 | 54.57324 | -165.47500 | 20609 ft | 298 kts | 83° |
| 2026-04-21 21:57 | 54.57855 | -165.44042 | 20612 ft | 299 kts | 82° |
| 2026-04-21 21:58 | 54.58388 | -165.40569 | 20615 ft | 299 kts | 83° |
| 2026-04-21 21:58 | 54.58912 | -165.37092 | 20618 ft | 300 kts | 82° |
| 2026-04-21 21:58 | 54.59438 | -165.33608 | 20622 ft | 300 kts | 82° |
| 2026-04-21 21:58 | 54.60046 | -165.30151 | 20625 ft | 303 kts | 77° |
| 2026-04-21 21:59 | 54.60803 | -165.26794 | 20629 ft | 305 kts | 74° |
| 2026-04-21 21:59 | 54.61628 | -165.23422 | 20633 ft | 306 kts | 73° |
| 2026-04-21 21:59 | 54.62472 | -165.20054 | 20637 ft | 306 kts | 73° |
| 2026-04-21 21:59 | 54.63325 | -165.16684 | 20641 ft | 306 kts | 72° |
| 2026-04-21 22:00 | 54.64178 | -165.13317 | 20645 ft | 306 kts | 72° |
| 2026-04-21 22:00 | 54.65030 | -165.09946 | 20650 ft | 306 kts | 72° |
| 2026-04-21 22:00 | 54.65882 | -165.06573 | 20654 ft | 306 kts | 72° |
| 2026-04-21 22:00 | 54.66733 | -165.03200 | 20659 ft | 306 kts | 72° |
| 2026-04-21 22:01 | 54.67588 | -164.99824 | 20666 ft | 306 kts | 72° |
| 2026-04-21 22:01 | 54.68440 | -164.96446 | 20669 ft | 306 kts | 72° |
| 2026-04-21 22:01 | 54.69291 | -164.93067 | 20671 ft | 306 kts | 73° |
| 2026-04-21 22:01 | 54.70138 | -164.89690 | 20680 ft | 306 kts | 72° |
| 2026-04-21 22:02 | 54.70987 | -164.86307 | 20684 ft | 306 kts | 72° |
| 2026-04-21 22:02 | 54.71835 | -164.82927 | 20688 ft | 306 kts | 72° |
| 2026-04-21 22:02 | 54.72676 | -164.79542 | 20693 ft | 306 kts | 73° |
| 2026-04-21 22:02 | 54.73446 | -164.76114 | 20698 ft | 305 kts | 76° |
| 2026-04-21 22:03 | 54.74173 | -164.72677 | 20703 ft | 304 kts | 76° |
| 2026-04-21 22:03 | 54.74876 | -164.69272 | 20710 ft | 304 kts | 77° |
| 2026-04-21 22:03 | 54.75583 | -164.65816 | 20715 ft | 304 kts | 77° |
| 2026-04-21 22:03 | 54.76289 | -164.62366 | 20718 ft | 304 kts | 77° |
| 2026-04-21 22:04 | 54.76997 | -164.58911 | 20723 ft | 304 kts | 77° |
| 2026-04-21 22:04 | 54.77695 | -164.55446 | 20728 ft | 304 kts | 78° |
| 2026-04-21 22:04 | 54.78339 | -164.51952 | 20733 ft | 303 kts | 79° |
| 2026-04-21 22:04 | 54.78942 | -164.48454 | 20739 ft | 303 kts | 81° |
| 2026-04-21 22:05 | 54.79499 | -164.44944 | 20744 ft | 302 kts | 81° |
| 2026-04-21 22:05 | 54.80040 | -164.41425 | 20748 ft | 302 kts | 82° |
| 2026-04-21 22:05 | 54.80574 | -164.37907 | 20753 ft | 302 kts | 82° |
| 2026-04-21 22:05 | 54.81099 | -164.34425 | 20758 ft | 302 kts | 82° |
| 2026-04-21 22:06 | 54.81630 | -164.30904 | 20763 ft | 302 kts | 82° |
| 2026-04-21 22:06 | 54.82159 | -164.27383 | 20767 ft | 302 kts | 82° |
| 2026-04-21 22:06 | 54.82690 | -164.23848 | 20772 ft | 302 kts | 82° |
| 2026-04-21 22:06 | 54.83218 | -164.20322 | 20777 ft | 302 kts | 82° |
| 2026-04-21 22:07 | 54.83749 | -164.16793 | 20781 ft | 302 kts | 82° |
| 2026-04-21 22:07 | 54.84282 | -164.13255 | 20792 ft | 302 kts | 82° |
| 2026-04-21 22:07 | 54.84815 | -164.09719 | 20807 ft | 302 kts | 82° |
| 2026-04-21 22:07 | 54.85343 | -164.06189 | 20819 ft | 302 kts | 82° |
| 2026-04-21 22:08 | 54.85863 | -164.02709 | 20822 ft | 302 kts | 82° |
| 2026-04-21 22:08 | 54.86393 | -163.99174 | 20823 ft | 303 kts | 82° |
| 2026-04-21 22:08 | 54.86921 | -163.95636 | 20826 ft | 303 kts | 81° |
| 2026-04-21 22:08 | 54.87669 | -163.92171 | 20829 ft | 309 kts | 70° |
| 2026-04-21 22:09 | 54.88332 | -163.89959 | 20832 ft | 311 kts | 66° |
| 2026-04-21 22:09 | 54.89584 | -163.86296 | 20835 ft | 312 kts | 63° |
| 2026-04-21 22:09 | 54.90814 | -163.82890 | 20837 ft | 313 kts | 62° |
| 2026-04-21 22:09 | 54.92053 | -163.79485 | 20840 ft | 313 kts | 62° |
| 2026-04-21 22:10 | 54.92937 | -163.77036 | 20842 ft | 313 kts | 63° |
| 2026-04-21 22:10 | 54.94273 | -163.73284 | 20845 ft | 313 kts | 63° |
| 2026-04-21 22:10 | 54.95028 | -163.71138 | 20847 ft | 313 kts | 63° |
| 2026-04-21 22:10 | 54.96451 | -163.67038 | 20850 ft | 313 kts | 64° |
| 2026-04-21 22:11 | 54.97638 | -163.63573 | 20852 ft | 313 kts | 64° |
| 2026-04-21 22:11 | 54.98522 | -163.60970 | 20854 ft | 313 kts | 64° |
| 2026-04-21 22:11 | 54.99706 | -163.57435 | 20856 ft | 313 kts | 64° |
| 2026-04-21 22:11 | 55.00975 | -163.53598 | 20859 ft | 313 kts | 65° |
| 2026-04-21 22:12 | 55.02116 | -163.50127 | 20860 ft | 313 kts | 65° |
| 2026-04-21 22:12 | 55.02876 | -163.47808 | 20862 ft | 313 kts | 65° |
| 2026-04-21 22:12 | 55.04305 | -163.43439 | 20864 ft | 313 kts | 65° |
| 2026-04-21 22:12 | 55.05034 | -163.41207 | 20865 ft | 313 kts | 65° |
| 2026-04-21 22:13 | 55.06108 | -163.37906 | 20869 ft | 313 kts | 65° |
| 2026-04-21 22:13 | 55.07186 | -163.34597 | 20869 ft | 313 kts | 65° |
| 2026-04-21 22:13 | 55.08260 | -163.31298 | 20869 ft | 313 kts | 65° |
| 2026-04-21 22:13 | 55.09333 | -163.27994 | 20872 ft | 313 kts | 65° |
| 2026-04-21 22:14 | 55.10408 | -163.24684 | 20872 ft | 313 kts | 65° |
| 2026-04-21 22:14 | 55.11470 | -163.21414 | 20872 ft | 313 kts | 65° |
| 2026-04-21 22:14 | 55.12545 | -163.18099 | 20874 ft | 313 kts | 65° |
| 2026-04-21 22:14 | 55.13617 | -163.14785 | 20888 ft | 313 kts | 65° |
| 2026-04-21 22:15 | 55.14687 | -163.11471 | 20891 ft | 313 kts | 65° |
| 2026-04-21 22:15 | 55.15756 | -163.08161 | 20892 ft | 313 kts | 65° |
| 2026-04-21 22:15 | 55.16826 | -163.04845 | 20890 ft | 313 kts | 65° |
| 2026-04-21 22:15 | 55.17895 | -163.01527 | 20889 ft | 313 kts | 65° |
| 2026-04-21 22:16 | 55.18962 | -162.98208 | 20888 ft | 313 kts | 65° |
| 2026-04-21 22:16 | 55.20031 | -162.94880 | 20886 ft | 313 kts | 65° |
| 2026-04-21 22:16 | 55.21101 | -162.91546 | 20882 ft | 313 kts | 65° |
| 2026-04-21 22:16 | 55.22167 | -162.88217 | 20878 ft | 314 kts | 65° |
| 2026-04-21 22:17 | 55.23218 | -162.84928 | 20878 ft | 313 kts | 65° |
| 2026-04-21 22:17 | 55.24285 | -162.81589 | 20866 ft | 314 kts | 65° |
| 2026-04-21 22:17 | 55.25355 | -162.78231 | 20841 ft | 314 kts | 65° |
| 2026-04-21 22:17 | 55.26422 | -162.74881 | 20831 ft | 314 kts | 65° |
| 2026-04-21 22:18 | 55.27488 | -162.71527 | 20828 ft | 314 kts | 65° |
| 2026-04-21 22:18 | 55.28551 | -162.68182 | 20831 ft | 314 kts | 65° |
| 2026-04-21 22:18 | 55.29611 | -162.64840 | 20837 ft | 314 kts | 65° |
| 2026-04-21 22:18 | 55.30667 | -162.61498 | 20845 ft | 313 kts | 65° |
| 2026-04-21 22:19 | 55.31723 | -162.58151 | 20849 ft | 313 kts | 65° |
| 2026-04-21 22:19 | 55.32779 | -162.54808 | 20854 ft | 313 kts | 65° |
| 2026-04-21 22:19 | 55.33821 | -162.51503 | 20862 ft | 313 kts | 65° |
| 2026-04-21 22:19 | 55.34872 | -162.48156 | 20871 ft | 312 kts | 65° |
| 2026-04-21 22:20 | 55.35922 | -162.44808 | 20876 ft | 312 kts | 64° |
| 2026-04-21 22:20 | 55.36973 | -162.41462 | 20880 ft | 313 kts | 64° |
| 2026-04-21 22:20 | 55.38023 | -162.38115 | 20883 ft | 313 kts | 64° |
| 2026-04-21 22:20 | 55.39074 | -162.34763 | 20887 ft | 313 kts | 64° |
| 2026-04-21 22:21 | 55.40125 | -162.31406 | 20891 ft | 313 kts | 64° |
| 2026-04-21 22:21 | 55.41173 | -162.28052 | 20894 ft | 313 kts | 64° |
| 2026-04-21 22:21 | 55.42222 | -162.24690 | 20899 ft | 313 kts | 64° |
| 2026-04-21 22:21 | 55.43269 | -162.21331 | 20929 ft | 312 kts | 64° |
| 2026-04-21 22:22 | 55.44312 | -162.17978 | 20946 ft | 312 kts | 64° |
| 2026-04-21 22:22 | 55.45356 | -162.14616 | 20952 ft | 312 kts | 64° |
| 2026-04-21 22:22 | 55.46399 | -162.11251 | 20954 ft | 313 kts | 64° |
| 2026-04-21 22:22 | 55.47441 | -162.07885 | 20955 ft | 313 kts | 64° |
| 2026-04-21 22:23 | 55.48485 | -162.04509 | 20955 ft | 314 kts | 64° |
| 2026-04-21 22:23 | 55.49529 | -162.01129 | 20956 ft | 314 kts | 64° |
| 2026-04-21 22:23 | 55.50574 | -161.97739 | 20956 ft | 314 kts | 64° |
| 2026-04-21 22:23 | 55.51617 | -161.94348 | 20957 ft | 314 kts | 64° |
| 2026-04-21 22:24 | 55.52646 | -161.91001 | 20957 ft | 314 kts | 64° |
| 2026-04-21 22:24 | 55.53688 | -161.87609 | 20958 ft | 314 kts | 64° |
| 2026-04-21 22:24 | 55.54727 | -161.84220 | 20958 ft | 314 kts | 64° |
| 2026-04-21 22:24 | 55.55768 | -161.80818 | 20959 ft | 314 kts | 64° |
| 2026-04-21 22:25 | 55.56807 | -161.77420 | 20959 ft | 314 kts | 64° |
| 2026-04-21 22:25 | 55.57846 | -161.74017 | 20959 ft | 314 kts | 64° |
| 2026-04-21 22:25 | 55.58883 | -161.70612 | 20960 ft | 314 kts | 64° |
| 2026-04-21 22:25 | 55.59922 | -161.67199 | 20960 ft | 314 kts | 64° |
| 2026-04-21 22:26 | 55.60959 | -161.63788 | 20960 ft | 314 kts | 64° |
| 2026-04-21 22:26 | 55.61993 | -161.60380 | 20960 ft | 315 kts | 64° |
| 2026-04-21 22:26 | 55.63028 | -161.56964 | 20960 ft | 315 kts | 64° |
| 2026-04-21 22:26 | 55.64047 | -161.53587 | 20966 ft | 314 kts | 64° |
| 2026-04-21 22:27 | 55.65076 | -161.50170 | 20963 ft | 314 kts | 64° |
| 2026-04-21 22:27 | 55.66106 | -161.46755 | 20960 ft | 315 kts | 64° |
| 2026-04-21 22:27 | 55.67138 | -161.43334 | 20958 ft | 315 kts | 64° |
| 2026-04-21 22:27 | 55.68169 | -161.39908 | 20958 ft | 315 kts | 64° |
| 2026-04-21 22:28 | 55.69200 | -161.36479 | 20957 ft | 315 kts | 64° |
| 2026-04-21 22:28 | 55.70229 | -161.33051 | 20956 ft | 315 kts | 65° |
| 2026-04-21 22:28 | 55.71257 | -161.29622 | 20955 ft | 315 kts | 65° |
| 2026-04-21 22:28 | 55.72284 | -161.26189 | 20954 ft | 315 kts | 64° |
| 2026-04-21 22:29 | 55.73312 | -161.22749 | 20954 ft | 315 kts | 65° |
| 2026-04-21 22:29 | 55.74336 | -161.19314 | 20953 ft | 315 kts | 65° |
| 2026-04-21 22:29 | 55.75361 | -161.15873 | 20952 ft | 315 kts | 64° |
| 2026-04-21 22:29 | 55.76385 | -161.12431 | 20952 ft | 315 kts | 65° |
| 2026-04-21 22:30 | 55.77393 | -161.09035 | 20951 ft | 315 kts | 65° |
| 2026-04-21 22:30 | 55.78414 | -161.05592 | 20951 ft | 315 kts | 64° |
| 2026-04-21 22:30 | 55.79436 | -161.02142 | 20950 ft | 315 kts | 65° |
| 2026-04-21 22:30 | 55.80456 | -160.98692 | 20950 ft | 315 kts | 65° |
| 2026-04-21 22:31 | 55.81475 | -160.95239 | 20950 ft | 315 kts | 64° |
| 2026-04-21 22:31 | 55.82494 | -160.91780 | 20950 ft | 316 kts | 64° |
| 2026-04-21 22:31 | 55.83511 | -160.88323 | 20951 ft | 315 kts | 64° |
| 2026-04-21 22:31 | 55.84527 | -160.84859 | 20953 ft | 316 kts | 64° |
| 2026-04-21 22:32 | 55.85542 | -160.81397 | 20953 ft | 316 kts | 64° |
| 2026-04-21 22:32 | 55.86558 | -160.77930 | 20953 ft | 316 kts | 64° |
| 2026-04-21 22:32 | 55.87574 | -160.74459 | 20954 ft | 316 kts | 64° |
| 2026-04-21 22:32 | 55.88589 | -160.70986 | 20955 ft | 316 kts | 64° |
| 2026-04-21 22:33 | 55.89603 | -160.67511 | 20956 ft | 316 kts | 64° |
| 2026-04-21 22:33 | 55.90619 | -160.64024 | 20957 ft | 316 kts | 64° |
| 2026-04-21 22:33 | 55.91632 | -160.60543 | 20958 ft | 316 kts | 64° |
| 2026-04-21 22:33 | 55.92645 | -160.57054 | 20959 ft | 316 kts | 64° |
| 2026-04-21 22:34 | 55.93645 | -160.53607 | 20960 ft | 317 kts | 64° |
| 2026-04-21 22:34 | 55.94655 | -160.50118 | 20962 ft | 317 kts | 64° |
| 2026-04-21 22:34 | 55.95669 | -160.46612 | 20963 ft | 317 kts | 64° |
| 2026-04-21 22:34 | 55.96677 | -160.43119 | 20965 ft | 317 kts | 64° |
| 2026-04-21 22:35 | 55.97685 | -160.39623 | 20966 ft | 317 kts | 64° |
| 2026-04-21 22:35 | 55.98694 | -160.36118 | 20967 ft | 317 kts | 64° |
| 2026-04-21 22:35 | 55.99701 | -160.32614 | 20968 ft | 317 kts | 64° |
| 2026-04-21 22:35 | 56.00708 | -160.29100 | 20972 ft | 317 kts | 64° |
| 2026-04-21 22:36 | 56.02714 | -160.22082 | 21018 ft | 317 kts | 64° |
| 2026-04-21 22:36 | 56.03715 | -160.18580 | 21024 ft | 317 kts | 64° |
| 2026-04-21 22:36 | 56.04706 | -160.15107 | 21025 ft | 317 kts | 64° |
| 2026-04-21 22:37 | 56.05709 | -160.11587 | 21025 ft | 318 kts | 64° |
| 2026-04-21 22:37 | 56.06712 | -160.08063 | 21025 ft | 318 kts | 64° |
| 2026-04-21 22:37 | 56.07714 | -160.04533 | 21024 ft | 318 kts | 64° |
| 2026-04-21 22:37 | 56.08718 | -160.00996 | 21024 ft | 318 kts | 64° |
| 2026-04-21 22:38 | 56.09718 | -159.97462 | 21024 ft | 318 kts | 64° |
| 2026-04-21 22:38 | 56.10720 | -159.93917 | 21024 ft | 318 kts | 64° |
| 2026-04-21 22:38 | 56.11720 | -159.90375 | 21023 ft | 318 kts | 64° |
| 2026-04-21 22:38 | 56.12707 | -159.86873 | 21023 ft | 319 kts | 64° |
| 2026-04-21 22:39 | 56.13704 | -159.83328 | 21023 ft | 319 kts | 64° |
| 2026-04-21 22:39 | 56.14700 | -159.79781 | 21022 ft | 319 kts | 64° |
| 2026-04-21 22:39 | 56.15697 | -159.76226 | 21022 ft | 319 kts | 64° |
| 2026-04-21 22:39 | 56.16694 | -159.72667 | 21022 ft | 319 kts | 64° |
| 2026-04-21 22:40 | 56.17688 | -159.69111 | 21020 ft | 319 kts | 64° |
| 2026-04-21 22:40 | 56.18676 | -159.65556 | 21023 ft | 319 kts | 64° |
| 2026-04-21 22:40 | 56.19667 | -159.61991 | 21022 ft | 319 kts | 64° |
| 2026-04-21 22:40 | 56.20660 | -159.58425 | 21021 ft | 319 kts | 64° |
| 2026-04-21 22:41 | 56.21653 | -159.54851 | 21020 ft | 319 kts | 64° |
| 2026-04-21 22:41 | 56.22644 | -159.51283 | 21030 ft | 319 kts | 64° |
| 2026-04-21 22:41 | 56.23633 | -159.47718 | 21044 ft | 319 kts | 64° |
| 2026-04-21 22:41 | 56.24624 | -159.44137 | 21049 ft | 319 kts | 64° |
| 2026-04-21 22:42 | 56.25600 | -159.40606 | 21051 ft | 319 kts | 64° |
| 2026-04-21 22:42 | 56.26586 | -159.37029 | 21052 ft | 319 kts | 64° |
| 2026-04-21 22:42 | 56.27575 | -159.33440 | 21052 ft | 320 kts | 64° |
| 2026-04-21 22:42 | 56.28562 | -159.29850 | 21053 ft | 320 kts | 64° |
| 2026-04-21 22:43 | 56.29550 | -159.26251 | 21053 ft | 320 kts | 64° |
| 2026-04-21 22:43 | 56.30537 | -159.22647 | 21054 ft | 321 kts | 64° |
| 2026-04-21 22:43 | 56.31525 | -159.19038 | 21054 ft | 321 kts | 64° |
| 2026-04-21 22:43 | 56.32511 | -159.15426 | 21052 ft | 321 kts | 64° |
| 2026-04-21 22:44 | 56.33483 | -159.11862 | 21046 ft | 321 kts | 64° |
| 2026-04-21 22:44 | 56.34468 | -159.08246 | 21044 ft | 321 kts | 64° |
| 2026-04-21 22:44 | 56.35453 | -159.04621 | 21043 ft | 321 kts | 64° |
| 2026-04-21 22:44 | 56.36437 | -159.00998 | 21044 ft | 321 kts | 64° |
| 2026-04-21 22:45 | 56.37419 | -158.97368 | 21047 ft | 321 kts | 64° |
| 2026-04-21 22:45 | 56.38397 | -158.93745 | 21046 ft | 321 kts | 64° |
| 2026-04-21 22:45 | 56.39376 | -158.90120 | 21046 ft | 321 kts | 64° |
| 2026-04-21 22:45 | 56.40342 | -158.86541 | 21046 ft | 321 kts | 64° |
| 2026-04-21 22:46 | 56.41321 | -158.82906 | 21046 ft | 321 kts | 64° |
| 2026-04-21 22:46 | 56.42297 | -158.79277 | 21047 ft | 321 kts | 64° |
| 2026-04-21 22:46 | 56.43273 | -158.75643 | 21047 ft | 321 kts | 64° |
| 2026-04-21 22:46 | 56.44246 | -158.72011 | 21048 ft | 321 kts | 64° |
| 2026-04-21 22:47 | 56.45220 | -158.68372 | 21048 ft | 321 kts | 64° |
| 2026-04-21 22:47 | 56.46191 | -158.64739 | 21048 ft | 321 kts | 64° |
| 2026-04-21 22:47 | 56.47164 | -158.61091 | 21049 ft | 321 kts | 64° |
| 2026-04-21 22:47 | 56.48133 | -158.57453 | 21048 ft | 321 kts | 64° |
| 2026-04-21 22:48 | 56.49105 | -158.53795 | 21048 ft | 321 kts | 64° |
| 2026-04-21 22:48 | 56.50073 | -158.50148 | 21048 ft | 321 kts | 64° |
| 2026-04-21 22:48 | 56.51040 | -158.46501 | 21048 ft | 321 kts | 64° |
| 2026-04-21 22:48 | 56.51994 | -158.42894 | 21048 ft | 321 kts | 64° |
| 2026-04-21 22:49 | 56.52961 | -158.39233 | 21047 ft | 321 kts | 64° |
| 2026-04-21 22:49 | 56.53924 | -158.35579 | 21046 ft | 321 kts | 64° |
| 2026-04-21 22:49 | 56.54887 | -158.31923 | 21046 ft | 321 kts | 64° |
| 2026-04-21 22:49 | 56.55849 | -158.28261 | 21045 ft | 321 kts | 64° |
| 2026-04-21 22:50 | 56.56798 | -158.24644 | 21044 ft | 321 kts | 64° |
| 2026-04-21 22:50 | 56.57758 | -158.20980 | 21043 ft | 321 kts | 64° |
| 2026-04-21 22:50 | 56.58714 | -158.17322 | 21043 ft | 321 kts | 64° |
| 2026-04-21 22:50 | 56.59670 | -158.13660 | 21043 ft | 321 kts | 64° |
| 2026-04-21 22:51 | 56.60626 | -158.09992 | 21040 ft | 321 kts | 64° |
| 2026-04-21 22:51 | 56.61581 | -158.06323 | 21039 ft | 321 kts | 64° |
| 2026-04-21 22:51 | 56.62534 | -158.02656 | 21038 ft | 321 kts | 64° |
| 2026-04-21 22:51 | 56.63488 | -157.98979 | 21037 ft | 321 kts | 64° |
| 2026-04-21 22:52 | 56.64439 | -157.95305 | 21036 ft | 321 kts | 64° |
| 2026-04-21 22:52 | 56.65390 | -157.91629 | 21035 ft | 321 kts | 64° |
| 2026-04-21 22:52 | 56.66336 | -157.87951 | 21037 ft | 321 kts | 64° |
| 2026-04-21 22:52 | 56.67285 | -157.84263 | 21035 ft | 321 kts | 64° |
| 2026-04-21 22:53 | 56.68232 | -157.80583 | 21034 ft | 322 kts | 64° |
| 2026-04-21 22:53 | 56.69180 | -157.76896 | 21033 ft | 322 kts | 64° |
| 2026-04-21 22:53 | 56.70128 | -157.73203 | 21033 ft | 322 kts | 64° |
| 2026-04-21 22:53 | 56.71076 | -157.69501 | 21032 ft | 322 kts | 64° |
| 2026-04-21 22:54 | 56.72021 | -157.65807 | 21032 ft | 322 kts | 64° |
| 2026-04-21 22:54 | 56.72955 | -157.62149 | 21031 ft | 322 kts | 64° |
| 2026-04-21 22:54 | 56.73899 | -157.58446 | 21031 ft | 322 kts | 64° |
| 2026-04-21 22:54 | 56.74843 | -157.54732 | 21034 ft | 323 kts | 64° |
| 2026-04-21 22:55 | 56.75783 | -157.51025 | 21045 ft | 322 kts | 64° |
| 2026-04-21 22:55 | 56.76718 | -157.47317 | 21049 ft | 322 kts | 64° |
| 2026-04-21 22:55 | 56.77657 | -157.43602 | 21049 ft | 322 kts | 64° |
| 2026-04-21 22:55 | 56.78597 | -157.39886 | 21049 ft | 323 kts | 64° |
| 2026-04-21 22:56 | 56.79537 | -157.36161 | 21047 ft | 323 kts | 64° |
| 2026-04-21 22:56 | 56.80476 | -157.32437 | 21047 ft | 323 kts | 64° |
| 2026-04-21 22:56 | 56.81413 | -157.28705 | 21047 ft | 323 kts | 64° |
| 2026-04-21 22:56 | 56.82339 | -157.25016 | 21045 ft | 324 kts | 64° |
| 2026-04-21 22:57 | 56.83277 | -157.21273 | 21044 ft | 324 kts | 64° |
| 2026-04-21 22:57 | 56.84215 | -157.17530 | 21044 ft | 324 kts | 64° |
| 2026-04-21 22:57 | 56.85147 | -157.13789 | 21045 ft | 323 kts | 64° |
| 2026-04-21 22:57 | 56.86079 | -157.10048 | 21044 ft | 324 kts | 64° |
| 2026-04-21 22:58 | 56.87012 | -157.06300 | 21043 ft | 324 kts | 64° |
| 2026-04-21 22:58 | 56.87943 | -157.02556 | 21042 ft | 324 kts | 64° |
| 2026-04-21 22:58 | 56.88874 | -156.98802 | 21042 ft | 324 kts | 64° |
| 2026-04-21 22:58 | 56.89804 | -156.95052 | 21042 ft | 324 kts | 64° |
| 2026-04-21 22:59 | 56.90734 | -156.91289 | 21041 ft | 324 kts | 64° |
| 2026-04-21 22:59 | 56.91361 | -156.88751 | 21041 ft | 324 kts | 64° |
| 2026-04-21 22:59 | 56.92588 | -156.83773 | 21041 ft | 324 kts | 64° |
| 2026-04-21 22:59 | 56.93214 | -156.81226 | 21041 ft | 324 kts | 64° |
| 2026-04-21 23:00 | 56.94129 | -156.77503 | 21041 ft | 324 kts | 64° |
| 2026-04-21 23:00 | 56.95053 | -156.73736 | 21041 ft | 325 kts | 64° |
| 2026-04-21 23:00 | 56.95978 | -156.69958 | 21041 ft | 325 kts | 64° |
| 2026-04-21 23:00 | 56.96900 | -156.66185 | 21053 ft | 324 kts | 64° |
| 2026-04-21 23:01 | 56.97819 | -156.62415 | 21065 ft | 324 kts | 64° |
| 2026-04-21 23:01 | 56.98737 | -156.58643 | 21070 ft | 324 kts | 64° |
| 2026-04-21 23:01 | 56.99655 | -156.54867 | 21073 ft | 324 kts | 64° |
| 2026-04-21 23:01 | 57.00572 | -156.51078 | 21077 ft | 324 kts | 64° |
| 2026-04-21 23:02 | 57.01488 | -156.47294 | 21077 ft | 325 kts | 64° |
| 2026-04-21 23:02 | 57.02404 | -156.43505 | 21079 ft | 325 kts | 65° |
| 2026-04-21 23:02 | 57.03319 | -156.39707 | 21082 ft | 325 kts | 64° |
| 2026-04-21 23:02 | 57.04235 | -156.35906 | 21082 ft | 325 kts | 64° |
| 2026-04-21 23:03 | 57.05150 | -156.32102 | 21083 ft | 325 kts | 64° |
| 2026-04-21 23:03 | 57.06064 | -156.28299 | 21085 ft | 326 kts | 64° |
| 2026-04-21 23:03 | 57.06967 | -156.24534 | 21087 ft | 326 kts | 64° |
| 2026-04-21 23:03 | 57.07880 | -156.20720 | 21089 ft | 326 kts | 64° |
| 2026-04-21 23:04 | 57.08793 | -156.16901 | 21091 ft | 326 kts | 64° |
| 2026-04-21 23:04 | 57.09703 | -156.13085 | 21094 ft | 326 kts | 64° |
| 2026-04-21 23:04 | 57.10614 | -156.09258 | 21096 ft | 326 kts | 64° |
| 2026-04-21 23:04 | 57.11523 | -156.05433 | 21098 ft | 326 kts | 64° |
| 2026-04-21 23:05 | 57.12431 | -156.01605 | 21101 ft | 326 kts | 64° |
| 2026-04-21 23:05 | 57.13338 | -155.97775 | 21104 ft | 326 kts | 64° |
| 2026-04-21 23:05 | 57.14244 | -155.93940 | 21106 ft | 327 kts | 64° |
| 2026-04-21 23:05 | 57.15149 | -155.90102 | 21113 ft | 327 kts | 64° |
| 2026-04-21 23:06 | 57.16052 | -155.86268 | 21133 ft | 326 kts | 64° |
| 2026-04-21 23:06 | 57.16955 | -155.82427 | 21143 ft | 326 kts | 64° |
| 2026-04-21 23:06 | 57.17858 | -155.78580 | 21147 ft | 326 kts | 64° |
| 2026-04-21 23:06 | 57.18759 | -155.74732 | 21149 ft | 327 kts | 64° |
| 2026-04-21 23:07 | 57.19658 | -155.70888 | 21151 ft | 327 kts | 64° |
| 2026-04-21 23:07 | 57.20548 | -155.67077 | 21153 ft | 327 kts | 64° |
| 2026-04-21 23:07 | 57.21450 | -155.63204 | 21154 ft | 327 kts | 64° |
| 2026-04-21 23:07 | 57.22347 | -155.59345 | 21156 ft | 327 kts | 64° |
| 2026-04-21 23:08 | 57.23245 | -155.55478 | 21158 ft | 327 kts | 64° |
| 2026-04-21 23:08 | 57.24142 | -155.51607 | 21159 ft | 327 kts | 64° |
| 2026-04-21 23:08 | 57.25034 | -155.47739 | 21163 ft | 327 kts | 64° |
| 2026-04-21 23:08 | 57.25914 | -155.43924 | 21163 ft | 327 kts | 64° |
| 2026-04-21 23:09 | 57.26805 | -155.40057 | 21164 ft | 327 kts | 64° |
| 2026-04-21 23:09 | 57.27696 | -155.36185 | 21165 ft | 327 kts | 64° |
| 2026-04-21 23:09 | 57.28586 | -155.32312 | 21166 ft | 327 kts | 64° |
| 2026-04-21 23:09 | 57.29472 | -155.28438 | 21170 ft | 327 kts | 64° |
| 2026-04-21 23:10 | 57.30358 | -155.24562 | 21170 ft | 327 kts | 64° |
| 2026-04-21 23:10 | 57.31243 | -155.20685 | 21171 ft | 327 kts | 64° |
| 2026-04-21 23:10 | 57.32127 | -155.16811 | 21171 ft | 327 kts | 64° |
| 2026-04-21 23:10 | 57.33010 | -155.12930 | 21173 ft | 327 kts | 64° |
| 2026-04-21 23:11 | 57.33895 | -155.09038 | 21173 ft | 327 kts | 64° |
| 2026-04-21 23:11 | 57.34776 | -155.05151 | 21175 ft | 327 kts | 64° |
| 2026-04-21 23:11 | 57.35658 | -155.01257 | 21176 ft | 328 kts | 64° |
| 2026-04-21 23:11 | 57.36540 | -154.97353 | 21177 ft | 328 kts | 64° |
| 2026-04-21 23:12 | 57.37417 | -154.93463 | 21178 ft | 328 kts | 64° |
| 2026-04-21 23:12 | 57.38285 | -154.89608 | 21177 ft | 328 kts | 64° |
| 2026-04-21 23:12 | 57.39162 | -154.85702 | 21174 ft | 328 kts | 64° |
| 2026-04-21 23:12 | 57.40037 | -154.81798 | 21172 ft | 328 kts | 64° |
| 2026-04-21 23:13 | 57.40911 | -154.77892 | 21172 ft | 328 kts | 64° |
| 2026-04-21 23:13 | 57.41786 | -154.73975 | 21172 ft | 328 kts | 64° |
| 2026-04-21 23:13 | 57.42658 | -154.70063 | 21173 ft | 328 kts | 64° |
| 2026-04-21 23:13 | 57.43531 | -154.66143 | 21174 ft | 328 kts | 64° |
| 2026-04-21 23:14 | 57.44400 | -154.62228 | 21178 ft | 328 kts | 64° |
| 2026-04-21 23:14 | 57.45271 | -154.58300 | 21179 ft | 328 kts | 64° |
| 2026-04-21 23:14 | 57.46141 | -154.54369 | 21179 ft | 329 kts | 64° |
| 2026-04-21 23:14 | 57.46996 | -154.50495 | 21179 ft | 329 kts | 64° |
| 2026-04-21 23:15 | 57.47865 | -154.46555 | 21178 ft | 329 kts | 64° |
| 2026-04-21 23:15 | 57.48732 | -154.42613 | 21178 ft | 329 kts | 64° |
| 2026-04-21 23:15 | 57.49597 | -154.38677 | 21177 ft | 329 kts | 64° |
| 2026-04-21 23:15 | 57.50460 | -154.34737 | 21176 ft | 329 kts | 64° |
| 2026-04-21 23:16 | 57.51326 | -154.30781 | 21175 ft | 330 kts | 64° |
| 2026-04-21 23:16 | 57.52191 | -154.26818 | 21174 ft | 330 kts | 64° |
| 2026-04-21 23:16 | 57.53053 | -154.22865 | 21173 ft | 330 kts | 64° |
| 2026-04-21 23:16 | 57.53916 | -154.18897 | 21172 ft | 330 kts | 64° |
| 2026-04-21 23:17 | 57.54775 | -154.14939 | 21172 ft | 330 kts | 64° |
| 2026-04-21 23:17 | 57.55637 | -154.10960 | 21169 ft | 331 kts | 64° |
| 2026-04-21 23:17 | 57.56496 | -154.06990 | 21166 ft | 331 kts | 64° |
| 2026-04-21 23:17 | 57.57346 | -154.03055 | 21163 ft | 331 kts | 64° |
| 2026-04-21 23:18 | 57.58202 | -153.99081 | 21161 ft | 331 kts | 64° |
| 2026-04-21 23:18 | 57.59061 | -153.95083 | 21159 ft | 331 kts | 64° |
| 2026-04-21 23:18 | 57.59918 | -153.91082 | 21160 ft | 331 kts | 64° |
| 2026-04-21 23:18 | 57.60770 | -153.87095 | 21157 ft | 331 kts | 64° |
| 2026-04-21 23:19 | 57.61623 | -153.83107 | 21154 ft | 331 kts | 64° |
| 2026-04-21 23:19 | 57.62476 | -153.79110 | 21152 ft | 331 kts | 64° |
| 2026-04-21 23:19 | 57.63327 | -153.75114 | 21149 ft | 331 kts | 64° |
| 2026-04-21 23:19 | 57.64168 | -153.71162 | 21147 ft | 332 kts | 64° |
| 2026-04-21 23:20 | 57.65018 | -153.67157 | 21145 ft | 332 kts | 64° |
| 2026-04-21 23:20 | 57.65868 | -153.63146 | 21142 ft | 332 kts | 64° |
| 2026-04-21 23:20 | 57.66716 | -153.59132 | 21140 ft | 332 kts | 64° |
| 2026-04-21 23:20 | 57.67562 | -153.55124 | 21138 ft | 331 kts | 64° |
| 2026-04-21 23:21 | 57.68405 | -153.51116 | 21136 ft | 331 kts | 64° |
| 2026-04-21 23:21 | 57.69247 | -153.47109 | 21133 ft | 331 kts | 64° |
| 2026-04-21 23:21 | 57.70086 | -153.43105 | 21131 ft | 331 kts | 64° |
| 2026-04-21 23:21 | 57.70929 | -153.39078 | 21129 ft | 331 kts | 64° |
| 2026-04-21 23:22 | 57.71764 | -153.35076 | 21125 ft | 331 kts | 65° |
| 2026-04-21 23:22 | 57.72597 | -153.31063 | 21127 ft | 328 kts | 64° |
| 2026-04-21 23:22 | 57.73399 | -153.27180 | 20972 ft | 322 kts | 64° |
| 2026-04-21 23:22 | 57.74204 | -153.23285 | 20481 ft | 319 kts | 65° |
| 2026-04-21 23:23 | 57.74996 | -153.19457 | 19877 ft | 312 kts | 64° |
| 2026-04-21 23:23 | 57.75774 | -153.15693 | 19254 ft | 308 kts | 64° |
| 2026-04-21 23:23 | 57.76541 | -153.11981 | 18627 ft | 304 kts | 65° |
| 2026-04-21 23:23 | 57.77297 | -153.08309 | 18003 ft | 300 kts | 65° |
| 2026-04-21 23:24 | 57.78044 | -153.04681 | 17378 ft | 297 kts | 65° |
| 2026-04-21 23:24 | 57.78786 | -153.01078 | 16752 ft | 295 kts | 65° |
| 2026-04-21 23:24 | 57.79520 | -152.97505 | 16126 ft | 292 kts | 65° |
| 2026-04-21 23:24 | 57.80249 | -152.93954 | 15499 ft | 290 kts | 65° |
| 2026-04-21 23:25 | 57.80970 | -152.90431 | 14874 ft | 288 kts | 65° |
| 2026-04-21 23:25 | 57.81677 | -152.86967 | 14255 ft | 287 kts | 66° |
| 2026-04-21 23:25 | 57.82386 | -152.83486 | 13631 ft | 285 kts | 66° |
| 2026-04-21 23:25 | 57.83088 | -152.80020 | 13000 ft | 283 kts | 66° |
| 2026-04-21 23:26 | 57.83782 | -152.76587 | 12455 ft | 278 kts | 66° |
| 2026-04-21 23:26 | 57.84460 | -152.73226 | 11955 ft | 273 kts | 66° |
| 2026-04-21 23:26 | 57.85127 | -152.69923 | 11454 ft | 269 kts | 66° |
| 2026-04-21 23:26 | 57.85786 | -152.66662 | 10953 ft | 265 kts | 66° |
| 2026-04-21 23:27 | 57.86433 | -152.63449 | 10448 ft | 261 kts | 66° |
| 2026-04-21 23:27 | 57.87071 | -152.60265 | 9943 ft | 258 kts | 66° |
| 2026-04-21 23:27 | 57.87701 | -152.57131 | 9442 ft | 255 kts | 66° |
| 2026-04-21 23:27 | 57.88330 | -152.53996 | 8942 ft | 256 kts | 66° |
| 2026-04-21 23:28 | 57.88959 | -152.50836 | 8448 ft | 262 kts | 66° |
| 2026-04-21 23:28 | 57.89611 | -152.47595 | 7949 ft | 268 kts | 66° |
| 2026-04-21 23:28 | 57.90278 | -152.44290 | 7449 ft | 272 kts | 66° |
| 2026-04-21 23:28 | 57.90945 | -152.40948 | 6946 ft | 274 kts | 67° |
| 2026-04-21 23:29 | 57.91607 | -152.37626 | 6457 ft | 275 kts | 67° |
| 2026-04-21 23:29 | 57.92273 | -152.34240 | 5958 ft | 276 kts | 68° |
| 2026-04-21 23:29 | 57.92937 | -152.30850 | 5455 ft | 276 kts | 68° |
| 2026-04-21 23:29 | 57.93632 | -152.27485 | 4954 ft | 274 kts | 66° |
| 2026-04-21 23:30 | 57.93961 | -152.23977 | 4445 ft | 273 kts | 95° |
| 2026-04-21 23:30 | 57.93357 | -152.20677 | 3947 ft | 265 kts | 127° |
| 2026-04-21 23:30 | 57.92037 | -152.18481 | 3466 ft | 254 kts | 154° |
| 2026-04-21 23:30 | 57.90435 | -152.17200 | 2972 ft | 248 kts | 164° |
| 2026-04-21 23:31 | 57.88796 | -152.16279 | 2473 ft | 244 kts | 167° |
| 2026-04-21 23:31 | 57.87239 | -152.14997 | 1975 ft | 245 kts | 150° |
| 2026-04-21 23:31 | 57.85852 | -152.13177 | 1685 ft | 235 kts | 144° |
| 2026-04-21 23:31 | 57.84605 | -152.11351 | 1611 ft | 219 kts | 143° |
| 2026-04-21 23:32 | 57.83454 | -152.09622 | 1593 ft | 205 kts | 142° |
| 2026-04-21 23:32 | 57.82392 | -152.08018 | 1589 ft | 192 kts | 142° |
| 2026-04-21 23:32 | 57.81383 | -152.06486 | 1587 ft | 180 kts | 142° |
| 2026-04-21 23:32 | 57.80445 | -152.05055 | 1607 ft | 167 kts | 142° |
| 2026-04-21 23:33 | 57.79573 | -152.03721 | 1589 ft | 157 kts | 142° |
| 2026-04-21 23:33 | 57.78712 | -152.02577 | 1565 ft | 148 kts | 161° |
| 2026-04-21 23:33 | 57.77749 | -152.02774 | 1479 ft | 139 kts | 217° |
| 2026-04-21 23:33 | 57.77396 | -152.04226 | 1565 ft | 121 kts | 276° |
| 2026-04-21 23:34 | 57.77608 | -152.05625 | 1680 ft | 104 kts | 276° |
| 2026-04-21 23:34 | 57.77284 | -152.06986 | 1295 ft | 133 kts | 228° |
| 2026-04-21 23:34 | 57.76715 | -152.08069 | 1582 ft | 103 kts | 226° |
| 2026-04-21 23:34 | 57.76176 | -152.09079 | 1645 ft | 114 kts | 233° |
| 2026-04-21 23:35 | 57.75741 | -152.10371 | 1633 ft | 122 kts | 241° |
| 2026-04-21 23:35 | 57.75292 | -152.11855 | 1625 ft | 138 kts | 242° |
| 2026-04-21 23:35 | 57.74850 | -152.13529 | 1611 ft | 148 kts | 248° |
| 2026-04-21 23:35 | 57.74536 | -152.15398 | 1605 ft | 153 kts | 257° |
| 2026-04-21 23:36 | 57.74398 | -152.17364 | 1602 ft | 155 kts | 266° |
| 2026-04-21 23:36 | 57.74404 | -152.19365 | 1594 ft | 149 kts | 272° |
| 2026-04-21 23:36 | 57.74483 | -152.21271 | 1593 ft | 147 kts | 275° |
| 2026-04-21 23:36 | 57.74580 | -152.23167 | 1606 ft | 144 kts | 275° |
| 2026-04-21 23:37 | 57.74665 | -152.24995 | 1608 ft | 140 kts | 274° |
| 2026-04-21 23:37 | 57.74729 | -152.26789 | 1626 ft | 135 kts | 273° |
| 2026-04-21 23:37 | 57.74777 | -152.28520 | 1590 ft | 134 kts | 272° |
| 2026-04-21 23:37 | 57.74815 | -152.30273 | 1434 ft | 135 kts | 272° |
| 2026-04-21 23:38 | 57.74841 | -152.32009 | 1300 ft | 132 kts | 272° |
| 2026-04-21 23:38 | 57.74854 | -152.33728 | 1160 ft | 131 kts | 274° |
| 2026-04-21 23:38 | 57.74874 | -152.35484 | 1025 ft | 132 kts | 275° |
| 2026-04-21 23:38 | 57.74910 | -152.37204 | 897 ft | 133 kts | 276° |
| 2026-04-21 23:39 | 57.74957 | -152.38946 | 774 ft | 135 kts | 276° |
| 2026-04-21 23:39 | 57.75008 | -152.40721 | 649 ft | 138 kts | 274° |
| 2026-04-21 23:39 | 57.75055 | -152.42524 | 524 ft | 140 kts | 273° |
| 2026-04-21 23:39 | 57.75089 | -152.44363 | 395 ft | 142 kts | 272° |
| 2026-04-21 23:40 | 57.75117 | -152.46210 | 264 ft | 143 kts | 272° |
| 2026-04-21 23:40 | 57.75149 | -152.48062 | 126 ft | 137 kts | 272° |
| 2026-04-21 23:40 | 57.75176 | -152.49595 | 78 ft | 100 kts | 272° |
| 2026-04-21 23:40 | 57.75190 | -152.50397 | 78 ft | 35 kts | 273° |
| 2026-04-21 23:41 | 57.75196 | -152.50801 | 78 ft | 27 kts | 273° |
| 2026-04-21 23:41 | 57.75218 | -152.51060 | 78 ft | 22 kts | 294° |
| 2026-04-21 23:41 | 57.75298 | -152.51244 | 78 ft | 18 kts | 344° |
| 2026-04-21 23:41 | 57.75346 | -152.51352 | 78 ft | 9 kts | 268° |
| 2026-04-21 23:42 | 57.75384 | -152.51377 | 78 ft | 5 kts | 76° |
| 2026-04-21 23:42 | 57.75384 | -152.51375 | 77 ft | 0 kts | 77° |